Time;durP1;ratioP1;P1;durP2;ratioP2;P2;SDS_P1;SDS_P2;PMS_P1;PMS_P2;Temp;Humidity;BMP_temperature;BMP_pressure;BME280_temperature;BME280_humidity;BME280_pressure;Samples;Min_cycle;Max_cycle;Signal;HPM_P1;HPM_P2
2022/01/10 00:02:00;;;;;;;7.87;2.53;;;;;;;-1.61;100.00;94846.22;6078302;23;20162;-80
2022/01/10 00:04:25;;;;;;;7.00;2.33;;;;;;;-1.61;100.00;94850.50;6055142;23;20491;-80
2022/01/10 00:06:51;;;;;;;9.43;2.80;;;;;;;-1.63;100.00;94852.34;6055527;23;20183;-80
2022/01/10 00:09:16;;;;;;;4.73;2.30;;;;;;;-1.63;100.00;94855.69;6079524;23;20624;-83
2022/01/10 00:11:41;;;;;;;8.53;2.80;;;;;;;-1.66;100.00;94858.44;6078962;23;20156;-81
2022/01/10 00:14:07;;;;;;;9.83;2.47;;;;;;;-1.67;100.00;94853.44;6057480;23;20171;-80
2022/01/10 00:16:32;;;;;;;7.40;3.10;;;;;;;-1.67;100.00;94856.81;6080178;23;20240;-80
2022/01/10 00:18:57;;;;;;;6.77;2.93;;;;;;;-1.69;100.00;94850.97;6080534;23;20159;-80
2022/01/10 00:21:22;;;;;;;6.67;2.63;;;;;;;-1.67;100.00;94861.91;6055423;23;20183;-79
2022/01/10 00:23:48;;;;;;;5.97;2.77;;;;;;;-1.60;100.00;94863.16;6055607;23;20541;-80
2022/01/10 00:26:13;;;;;;;4.87;2.40;;;;;;;-1.59;100.00;94869.91;6079837;23;20153;-80
2022/01/10 00:28:38;;;;;;;5.93;2.60;;;;;;;-1.55;100.00;94867.97;6081213;23;20172;-80
2022/01/10 00:31:04;;;;;;;8.17;2.57;;;;;;;-1.46;100.00;94875.88;6055212;23;20174;-80
2022/01/10 00:33:29;;;;;;;8.70;2.47;;;;;;;-1.40;100.00;94876.44;6055043;23;20187;-79
2022/01/10 00:35:54;;;;;;;8.83;2.60;;;;;;;-1.31;100.00;94883.53;6057360;23;20506;-81
2022/01/10 00:38:19;;;;;;;8.37;2.50;;;;;;;-1.31;100.00;94879.25;6081220;23;20593;-81
2022/01/10 00:40:48;;;;;;;6.37;2.77;;;;;;;-1.24;100.00;94877.13;6080798;23;20191;-80
2022/01/10 00:43:18;;;;;;;5.70;3.00;;;;;;;-1.20;100.00;94881.16;6080395;23;20231;-80
2022/01/10 00:45:44;;;;;;;5.93;2.50;;;;;;;-1.10;100.00;94882.22;6058520;23;20174;-81
2022/01/10 00:48:09;;;;;;;9.40;2.20;;;;;;;-1.03;100.00;94882.66;6056823;23;20527;-80
2022/01/10 00:50:34;;;;;;;9.73;3.60;;;;;;;-0.91;100.00;94887.81;6107267;23;20155;-81
2022/01/10 00:53:01;;;;;;;8.97;3.10;;;;;;;-0.89;100.00;94890.25;6056139;23;20192;-80
2022/01/10 00:55:27;;;;;;;9.53;2.60;;;;;;;-0.82;100.00;94890.72;6058468;23;20235;-81
2022/01/10 00:57:52;;;;;;;11.47;3.30;;;;;;;-0.81;100.00;94892.34;6057771;23;20205;-81
2022/01/10 01:00:18;;;;;;;9.73;3.20;;;;;;;-0.81;100.00;94897.44;6081448;23;20646;-81
2022/01/10 01:02:44;;;;;;;4.33;2.80;;;;;;;-0.78;100.00;94899.81;6080854;23;20182;-81
2022/01/10 01:05:12;;;;;;;5.97;2.97;;;;;;;-0.75;100.00;94895.34;6080141;23;20221;-80
2022/01/10 01:07:38;;;;;;;11.63;3.93;;;;;;;-0.77;100.00;94902.28;6057274;23;20210;-81
2022/01/10 01:13:08;;;;;;;10.13;3.37;;;;;;;-0.68;100.00;94909.34;6101635;23;20144;-79
2022/01/10 01:15:45;;;;;;;7.57;3.03;;;;;;;-0.70;100.00;94911.19;6087062;23;20144;-80
2022/01/10 01:18:19;;;;;;;9.23;3.20;;;;;;;-0.68;100.00;94916.19;6060337;23;20206;-81
2022/01/10 01:23:59;;;;;;;8.77;3.23;;;;;;;-0.71;100.00;94926.56;6083872;23;20168;-82
2022/01/10 01:26:16;;;;;;;7.97;3.00;;;;;;;-0.76;100.00;94931.13;6085526;23;20218;-81
2022/01/10 01:28:41;;;;;;;8.47;3.10;;;;;;;-0.77;100.00;94932.06;6057766;23;20196;-80
2022/01/10 01:31:07;;;;;;;10.07;3.57;;;;;;;-0.79;100.00;94942.34;6080911;23;20160;-81
2022/01/10 01:33:32;;;;;;;6.47;3.20;;;;;;;-0.82;100.00;94942.50;6080904;23;20176;-80
2022/01/10 01:35:57;;;;;;;13.40;3.03;;;;;;;-0.82;100.00;94946.78;6057389;23;20163;-81
2022/01/10 01:38:24;;;;;;;12.40;3.30;;;;;;;-0.83;100.00;94947.72;6080418;23;20180;-82
2022/01/10 01:40:56;;;;;;;9.13;3.57;;;;;;;-0.84;100.00;94959.63;6081740;23;20186;-80
2022/01/10 01:43:21;;;;;;;9.83;3.70;;;;;;;-0.84;100.00;94953.72;6056636;23;20431;-81
2022/01/10 01:45:49;;;;;;;12.60;3.33;;;;;;;-0.83;100.00;94965.56;6057290;23;20586;-82
2022/01/10 01:48:14;;;;;;;4.87;2.83;;;;;;;-0.86;100.00;94964.84;6081280;23;20221;-81
2022/01/10 01:50:40;;;;;;;11.30;3.77;;;;;;;-0.83;100.00;94965.56;6056598;23;20158;-81
2022/01/10 01:53:06;;;;;;;9.43;3.67;;;;;;;-0.84;100.00;94969.03;6056195;23;20544;-81
2022/01/10 01:55:32;;;;;;;11.67;3.10;;;;;;;-0.87;100.00;94970.03;6081640;23;20171;-81
2022/01/10 01:57:57;;;;;;;8.10;2.80;;;;;;;-0.89;100.00;94972.66;6056760;23;20179;-81
2022/01/10 02:00:24;;;;;;;8.67;3.90;;;;;;;-0.88;100.00;94976.03;6081265;23;20180;-81
2022/01/10 02:02:50;;;;;;;9.17;3.33;;;;;;;-0.89;100.00;94972.66;6106191;23;20619;-81
2022/01/10 02:05:16;;;;;;;10.20;3.47;;;;;;;-0.86;100.00;94975.03;6056849;23;20163;-81
2022/01/10 02:07:41;;;;;;;8.70;3.30;;;;;;;-0.86;100.00;94985.22;6081228;23;20180;-81
2022/01/10 02:10:07;;;;;;;9.70;3.40;;;;;;;-0.85;100.00;94978.41;6081220;23;20161;-80
2022/01/10 02:12:32;;;;;;;10.33;3.47;;;;;;;-0.83;100.00;94986.78;6080664;23;20169;-80
2022/01/10 02:14:57;;;;;;;7.90;3.93;;;;;;;-0.80;100.00;94991.66;6055738;23;20229;-80
2022/01/10 02:17:33;;;;;;;6.63;3.10;;;;;;;-0.77;100.00;94995.78;6054362;23;20191;-82
2022/01/10 02:20:00;;;;;;;6.30;3.30;;;;;;;-0.75;100.00;95004.97;6057862;23;20188;-83
2022/01/10 02:22:25;;;;;;;8.07;3.27;;;;;;;-0.75;100.00;94999.88;6054680;23;20213;-81
2022/01/10 02:24:51;;;;;;;10.17;3.80;;;;;;;-0.70;100.00;95002.97;6055296;23;20242;-82
2022/01/10 02:27:16;;;;;;;9.30;3.63;;;;;;;-0.69;100.00;95006.34;6079143;23;20175;-81
2022/01/10 02:29:41;;;;;;;9.60;2.93;;;;;;;-0.69;100.00;95003.78;6055156;23;20237;-80
2022/01/10 02:32:07;;;;;;;12.07;3.50;;;;;;;-0.67;100.00;95007.88;6054694;23;20171;-82
2022/01/10 02:34:32;;;;;;;8.33;3.33;;;;;;;-0.64;100.00;95010.22;6054711;23;20185;-82
2022/01/10 02:37:00;;;;;;;10.87;3.40;;;;;;;-0.63;100.00;95013.59;6055532;23;20498;-81
2022/01/10 02:39:25;;;;;;;11.13;3.57;;;;;;;-0.64;100.00;95022.97;6079611;23;20166;-83
2022/01/10 02:41:50;;;;;;;8.20;3.33;;;;;;;-0.64;100.00;95022.97;6078104;23;20231;-80
2022/01/10 02:44:17;;;;;;;9.17;3.70;;;;;;;-0.64;100.00;95027.25;6054143;23;20167;-81
2022/01/10 02:46:44;;;;;;;6.37;3.00;;;;;;;-0.61;100.00;95029.66;6079313;23;20171;-82
2022/01/10 02:49:15;;;;;;;7.80;3.40;;;;;;;-0.58;100.00;95032.00;6080245;23;20159;-81
2022/01/10 02:51:41;;;;;;;8.87;3.40;;;;;;;-0.58;100.00;95029.47;6080549;23;20195;-80
2022/01/10 02:54:07;;;;;;;9.23;3.53;;;;;;;-0.58;100.00;95032.81;6056487;23;20614;-81
2022/01/10 02:56:33;;;;;;;7.83;2.80;;;;;;;-0.58;100.00;95037.91;6056882;23;20170;-82
2022/01/10 02:58:59;;;;;;;7.40;3.93;;;;;;;-0.56;100.00;95040.38;6056678;23;20183;-82
2022/01/10 03:01:24;;;;;;;7.83;3.20;;;;;;;-0.55;100.00;95041.19;6079632;23;20568;-81
2022/01/10 03:03:49;;;;;;;8.30;3.37;;;;;;;-0.57;100.00;95052.31;6079633;23;20164;-82
2022/01/10 03:06:15;;;;;;;10.23;2.97;;;;;;;-0.58;100.00;95049.84;6079982;23;20159;-82
2022/01/10 03:08:40;;;;;;;6.07;2.93;;;;;;;-0.54;100.00;95051.28;6080703;23;20167;-80
2022/01/10 03:11:06;;;;;;;6.30;3.07;;;;;;;-0.58;100.00;95060.88;6056340;23;20160;-83
2022/01/10 03:13:31;;;;;;;7.73;3.40;;;;;;;-0.56;100.00;95053.13;6080691;23;20166;-82
2022/01/10 03:15:56;;;;;;;13.13;3.20;;;;;;;-0.60;100.00;95056.78;6056333;23;20198;-82
2022/01/10 03:18:22;;;;;;;8.60;3.47;;;;;;;-0.58;100.00;95058.31;6105403;23;20204;-81
2022/01/10 03:20:47;;;;;;;6.43;2.83;;;;;;;-0.56;100.00;95065.88;6055257;23;20252;-81
2022/01/10 03:23:12;;;;;;;7.93;3.73;;;;;;;-0.59;100.00;95068.63;6079540;23;20495;-82
2022/01/10 03:25:38;;;;;;;7.77;4.20;;;;;;;-0.58;100.00;95075.38;6055944;23;20567;-82
2022/01/10 03:28:04;;;;;;;8.50;3.30;;;;;;;-0.59;100.00;95086.47;6079669;23;20174;-82
2022/01/10 03:30:29;;;;;;;9.57;3.77;;;;;;;-0.58;100.00;95091.47;6055597;23;20163;-82
2022/01/10 03:32:57;;;;;;;8.87;3.40;;;;;;;-0.57;100.00;95094.84;6079285;23;20156;-82
2022/01/10 03:35:22;;;;;;;7.23;4.07;;;;;;;-0.59;100.00;95096.69;6080044;23;20239;-81
2022/01/10 03:37:47;;;;;;;8.97;3.50;;;;;;;-0.60;100.00;95100.97;6056000;23;20549;-82
2022/01/10 03:40:13;;;;;;;9.33;4.07;;;;;;;-0.59;100.00;95105.16;6055777;23;20193;-83
2022/01/10 03:42:38;;;;;;;8.67;3.43;;;;;;;-0.55;100.00;95097.31;6055581;23;20160;-82
2022/01/10 03:45:05;;;;;;;7.93;4.13;;;;;;;-0.52;100.00;95104.78;6056800;23;20159;-82
2022/01/10 03:47:30;;;;;;;9.17;4.27;;;;;;;-0.51;100.00;95101.31;6082290;23;20192;-81
2022/01/10 03:49:55;;;;;;;5.77;3.80;;;;;;;-0.52;100.00;95113.25;6058248;23;20466;-80
2022/01/10 03:52:22;;;;;;;11.10;5.27;;;;;;;-0.51;100.00;95109.78;6080944;23;20223;-81
2022/01/10 03:54:47;;;;;;;7.90;4.00;;;;;;;-0.49;100.00;95115.63;6057874;23;20159;-82
2022/01/10 03:57:13;;;;;;;13.03;4.53;;;;;;;-0.48;100.00;95124.09;6055854;23;20183;-82
2022/01/10 03:59:39;;;;;;;9.77;4.47;;;;;;;-0.47;100.00;95129.09;6080929;23;20442;-81
2022/01/10 04:02:04;;;;;;;9.93;4.83;;;;;;;-0.46;100.00;95127.38;6079992;23;20231;-81
2022/01/10 04:04:30;;;;;;;9.83;5.10;;;;;;;-0.45;100.00;95124.72;6055027;23;20170;-81
2022/01/10 04:06:56;;;;;;;9.50;4.30;;;;;;;-0.44;100.00;95133.19;6057355;23;20214;-79
2022/01/10 04:09:21;;;;;;;7.83;3.90;;;;;;;-0.45;100.00;95136.66;6057599;23;20179;-80
2022/01/10 04:11:50;;;;;;;10.60;5.03;;;;;;;-0.45;100.00;95139.19;6081095;23;20466;-81
2022/01/10 04:14:15;;;;;;;7.93;4.30;;;;;;;-0.48;100.00;95137.66;6057934;23;20160;-81
2022/01/10 04:16:41;;;;;;;9.47;4.10;;;;;;;-0.46;100.00;95140.94;6057568;23;20191;-81
2022/01/10 04:19:07;;;;;;;11.80;4.40;;;;;;;-0.46;100.00;95142.66;6058257;23;20658;-80
2022/01/10 04:21:36;;;;;;;9.50;4.20;;;;;;;-0.47;100.00;95149.50;6074578;23;20175;-78
2022/01/10 04:24:01;;;;;;;8.67;4.10;;;;;;;-0.49;100.00;95146.22;6099549;23;20154;-78
2022/01/10 04:26:26;;;;;;;7.50;4.57;;;;;;;-0.48;100.00;95144.50;6087272;23;20160;-82
2022/01/10 04:28:51;;;;;;;10.20;4.70;;;;;;;-0.48;100.00;95152.97;6082187;23;20690;-82
2022/01/10 04:31:17;;;;;;;9.33;4.53;;;;;;;-0.48;100.00;95147.06;6057656;23;20212;-81
2022/01/10 04:33:43;;;;;;;10.37;4.33;;;;;;;-0.48;100.00;95158.06;6058507;23;20267;-81
2022/01/10 04:36:08;;;;;;;7.57;3.90;;;;;;;-0.47;100.00;95153.78;6058459;23;20164;-81
2022/01/10 04:38:37;;;;;;;7.77;4.00;;;;;;;-0.48;100.00;95159.81;6057610;23;20198;-81
2022/01/10 04:41:03;;;;;;;5.63;3.53;;;;;;;-0.48;100.00;95163.16;6058321;23;20243;-80
2022/01/10 04:43:29;;;;;;;9.27;4.53;;;;;;;-0.47;100.00;95162.25;6057251;23;20540;-81
2022/01/10 04:45:54;;;;;;;6.67;4.13;;;;;;;-0.49;100.00;95158.97;6058534;23;20183;-82
2022/01/10 04:48:19;;;;;;;5.70;4.07;;;;;;;-0.48;100.00;95170.81;6058334;23;20598;-81
2022/01/10 04:53:45;;;;;;;10.07;4.70;;;;;;;-0.48;100.00;95183.56;5990231;23;20234;-80
2022/01/10 04:56:11;;;;;;;9.63;4.50;;;;;;;-0.47;100.00;95181.84;5966426;24;20166;-80
2022/01/10 04:58:37;;;;;;;8.70;4.57;;;;;;;-0.45;100.00;95185.13;5941250;24;20215;-79
2022/01/10 05:01:03;;;;;;;11.67;4.47;;;;;;;-0.46;100.00;95186.84;5941018;24;20633;-82
2022/01/10 05:03:29;;;;;;;10.33;4.23;;;;;;;-0.45;100.00;95192.78;5962803;24;20173;-80
2022/01/10 05:05:55;;;;;;;7.60;4.33;;;;;;;-0.45;100.00;95198.69;5966903;24;20163;-80
2022/01/10 05:08:21;;;;;;;8.60;3.93;;;;;;;-0.44;100.00;95199.50;5943676;24;20183;-81
2022/01/10 05:10:49;;;;;;;7.83;3.70;;;;;;;-0.44;100.00;95200.38;5965968;24;20331;-81
2022/01/10 05:13:15;;;;;;;12.40;4.40;;;;;;;-0.43;100.00;95208.84;5943078;24;20500;-81
2022/01/10 05:15:42;;;;;;;9.93;3.97;;;;;;;-0.42;100.00;95216.38;5958675;24;20174;-81
2022/01/10 05:18:09;;;;;;;12.03;4.40;;;;;;;-0.43;100.00;95230.06;5961751;24;20215;-79
2022/01/10 05:20:35;;;;;;;6.40;3.50;;;;;;;-0.43;100.00;95234.34;5963298;24;20225;-81
2022/01/10 05:23:00;;;;;;;11.90;4.20;;;;;;;-0.41;100.00;95228.22;5940347;24;20261;-82
2022/01/10 05:25:25;;;;;;;7.23;4.67;;;;;;;-0.46;100.00;95237.88;5965385;24;20170;-81
2022/01/10 05:27:51;;;;;;;8.73;4.40;;;;;;;-0.46;100.00;95232.78;5939595;24;20248;-81
2022/01/10 05:30:16;;;;;;;5.13;3.67;;;;;;;-0.45;100.00;95236.13;6044995;23;20164;-82
2022/01/10 05:32:41;;;;;;;9.70;3.77;;;;;;;-0.45;100.00;95249.72;6080146;23;20169;-81
2022/01/10 05:35:07;;;;;;;7.80;4.47;;;;;;;-0.46;100.00;95252.34;6077908;23;20242;-81
2022/01/10 05:37:32;;;;;;;13.47;4.63;;;;;;;-0.46;100.00;95263.38;6054718;23;20190;-82
2022/01/10 05:39:58;;;;;;;9.20;3.83;;;;;;;-0.47;100.00;95259.19;6053828;23;20187;-81
2022/01/10 05:42:23;;;;;;;7.90;4.50;;;;;;;-0.48;100.00;95270.31;6052234;23;20179;-81
2022/01/10 05:44:48;;;;;;;12.53;5.60;;;;;;;-0.46;100.00;95275.31;6076366;23;20168;-80
2022/01/10 05:47:13;;;;;;;11.13;6.20;;;;;;;-0.45;100.00;95282.88;6074922;23;20180;-82
2022/01/10 05:49:45;;;;;;;14.53;7.67;;;;;;;-0.49;100.00;95281.41;6050527;23;20164;-81
2022/01/10 05:52:11;;;;;;;12.40;6.73;;;;;;;-0.45;100.00;95282.88;6049707;23;20517;-81
2022/01/10 05:54:36;;;;;;;11.13;4.73;;;;;;;-0.44;100.00;95292.19;6050710;23;20167;-82
2022/01/10 05:57:03;;;;;;;9.10;5.10;;;;;;;-0.44;100.00;95294.75;6074138;23;20521;-82
2022/01/10 05:59:28;;;;;;;7.10;4.33;;;;;;;-0.43;100.00;95296.38;6051754;23;20551;-81
2022/01/10 06:01:54;;;;;;;9.80;4.27;;;;;;;-0.42;100.00;95302.31;6048942;23;20277;-82
2022/01/10 06:04:19;;;;;;;9.30;4.30;;;;;;;-0.44;100.00;95309.22;6050367;23;20171;-81
2022/01/10 06:06:44;;;;;;;7.43;4.13;;;;;;;-0.46;100.00;95309.31;6050142;23;20184;-82
2022/01/10 06:09:10;;;;;;;10.13;4.30;;;;;;;-0.44;100.00;95322.81;6074350;23;20210;-81
2022/01/10 06:11:36;;;;;;;10.10;4.40;;;;;;;-0.40;100.00;95324.28;6050514;23;20154;-80
2022/01/10 06:14:01;;;;;;;9.13;4.93;;;;;;;-0.38;100.00;95334.38;6050468;23;20642;-81
2022/01/10 06:16:28;;;;;;;14.70;5.00;;;;;;;-0.43;100.00;95326.19;6049663;23;20168;-82
2022/01/10 06:18:54;;;;;;;10.87;5.10;;;;;;;-0.40;100.00;95338.75;6075556;23;20160;-81
2022/01/10 06:21:19;;;;;;;12.67;5.60;;;;;;;-0.41;100.00;95340.50;6100405;23;20192;-80
2022/01/10 06:23:44;;;;;;;14.77;5.87;;;;;;;-0.40;100.00;95343.84;6050832;23;20179;-80
2022/01/10 06:26:10;;;;;;;10.57;4.97;;;;;;;-0.45;100.00;95339.00;6074942;23;20552;-81
2022/01/10 06:28:35;;;;;;;8.93;4.97;;;;;;;-0.44;100.00;95345.78;6047239;23;20190;-81
2022/01/10 06:31:00;;;;;;;12.73;5.00;;;;;;;-0.44;100.00;95353.44;6099772;23;20567;-81
2022/01/10 06:33:25;;;;;;;9.83;4.10;;;;;;;-0.43;100.00;95362.72;6069461;23;20187;-80
2022/01/10 06:35:51;;;;;;;13.20;5.60;;;;;;;-0.40;100.00;95366.81;6072700;23;20152;-81
2022/01/10 06:38:16;;;;;;;11.90;5.27;;;;;;;-0.37;100.00;95379.41;6071625;23;20174;-79
2022/01/10 06:40:41;;;;;;;9.80;5.13;;;;;;;-0.40;100.00;95382.94;6071087;23;20204;-80
2022/01/10 06:43:07;;;;;;;7.90;4.63;;;;;;;-0.48;100.00;95387.66;6048406;23;20167;-80
2022/01/10 06:45:32;;;;;;;10.37;4.20;;;;;;;-0.49;100.00;95385.19;6073808;23;20171;-81
2022/01/10 06:47:58;;;;;;;9.27;4.33;;;;;;;-0.48;100.00;95390.19;6048827;23;20186;-81
2022/01/10 06:50:24;;;;;;;6.67;4.77;;;;;;;-0.47;100.00;95391.84;6073092;23;20156;-80
2022/01/10 06:52:51;;;;;;;11.03;5.70;;;;;;;-0.47;100.00;95402.03;6071055;23;20489;-82
2022/01/10 06:55:16;;;;;;;11.30;6.67;;;;;;;-0.46;100.00;95406.25;6048445;23;20164;-80
2022/01/10 06:57:41;;;;;;;16.77;6.03;;;;;;;-0.45;100.00;95407.88;6048626;23;20191;-81
2022/01/10 07:00:07;;;;;;;9.73;5.37;;;;;;;-0.44;100.00;95413.81;6098620;23;20179;-81
2022/01/10 07:02:33;;;;;;;13.37;5.97;;;;;;;-0.44;100.00;95424.00;6049911;23;20672;-81
2022/01/10 07:04:58;;;;;;;12.50;5.63;;;;;;;-0.44;100.00;95427.41;6049165;23;20163;-81
2022/01/10 07:07:23;;;;;;;13.00;5.67;;;;;;;-0.41;100.00;95429.78;6073242;23;20266;-82
2022/01/10 07:09:49;;;;;;;11.00;5.57;;;;;;;-0.40;100.00;95435.72;6078570;23;20512;-81
2022/01/10 07:12:14;;;;;;;19.40;10.20;;;;;;;-0.43;100.00;95434.16;6075864;23;20164;-82
2022/01/10 07:14:39;;;;;;;25.77;12.30;;;;;;;-0.42;100.00;95448.56;6051440;23;20222;-80
2022/01/10 07:17:05;;;;;;;11.20;9.23;;;;;;;-0.40;100.00;95451.84;6072928;23;20184;-80
2022/01/10 07:19:31;;;;;;;12.57;7.50;;;;;;;-0.43;100.00;95454.56;6050358;23;20163;-81
2022/01/10 07:21:56;;;;;;;11.97;7.93;;;;;;;-0.41;100.00;95467.22;6046885;23;20191;-79
2022/01/10 07:24:21;;;;;;;16.80;11.37;;;;;;;-0.42;100.00;95476.63;6073077;23;20164;-80
2022/01/10 07:26:47;;;;;;;22.17;18.37;;;;;;;-0.40;100.00;95474.78;6050534;23;20187;-80
2022/01/10 07:29:12;;;;;;;30.80;21.63;;;;;;;-0.39;100.00;95486.66;6048893;23;20535;-81
2022/01/10 07:31:39;;;;;;;18.60;13.97;;;;;;;-0.37;100.00;95495.03;6049207;23;20156;-82
2022/01/10 07:34:05;;;;;;;18.83;10.93;;;;;;;-0.34;100.00;95492.34;6051737;23;20326;-83
2022/01/10 07:36:30;;;;;;;18.13;10.70;;;;;;;-0.31;100.00;95497.25;6061675;23;20148;-81
2022/01/10 07:38:56;;;;;;;23.30;14.67;;;;;;;-0.29;100.00;95503.09;6098960;23;20175;-81
2022/01/10 07:41:21;;;;;;;18.37;10.30;;;;;;;-0.25;100.00;95518.25;6072974;23;20191;-82
2022/01/10 07:43:47;;;;;;;14.07;8.70;;;;;;;-0.20;100.00;95517.09;6059275;23;20977;-82
2022/01/10 07:46:12;;;;;;;15.90;8.60;;;;;;;-0.15;100.00;95519.41;6050904;23;20171;-81
2022/01/10 07:48:39;;;;;;;20.70;9.10;;;;;;;-0.11;100.00;95521.69;6054021;23;20210;-80
2022/01/10 07:51:09;;;;;;;14.30;9.00;;;;;;;-0.11;100.00;95534.47;6076000;23;20156;-80
2022/01/10 07:53:35;;;;;;;17.20;10.33;;;;;;;-0.09;100.00;95539.47;6053817;23;20175;-82
2022/01/10 07:56:00;;;;;;;18.60;11.30;;;;;;;-0.07;100.00;95542.78;6076641;23;20159;-81
2022/01/10 07:58:25;;;;;;;14.63;9.83;;;;;;;-0.09;100.00;95552.22;6073785;23;20179;-81
2022/01/10 08:00:51;;;;;;;17.73;8.93;;;;;;;-0.07;100.00;95553.00;6050013;23;20192;-78
2022/01/10 08:03:16;;;;;;;16.53;8.20;;;;;;;-0.13;100.00;95555.88;6095519;23;20481;-81
2022/01/10 08:05:41;;;;;;;13.57;8.83;;;;;;;-0.12;100.00;95560.88;6071160;23;20219;-81
2022/01/10 08:08:07;;;;;;;12.90;8.47;;;;;;;-0.04;100.00;95557.94;6048408;23;20183;-80
2022/01/10 08:10:32;;;;;;;18.33;10.00;;;;;;;0.03;100.00;95568.63;6048841;23;20160;-80
2022/01/10 08:12:57;;;;;;;14.23;9.87;;;;;;;0.06;100.00;95566.72;6071914;23;20179;-80
2022/01/10 08:15:23;;;;;;;11.57;8.80;;;;;;;0.09;100.00;95573.38;6039498;23;20161;-81
2022/01/10 08:17:48;;;;;;;12.10;8.23;;;;;;;0.06;100.00;95576.94;6044082;23;20258;-81
2022/01/10 08:20:14;;;;;;;14.73;8.87;;;;;;;0.12;100.00;95579.16;6068518;23;20615;-77
2022/01/10 08:22:39;;;;;;;25.73;11.90;;;;;;;0.18;100.00;95588.25;6070211;23;20204;-81
2022/01/10 08:25:07;;;;;;;19.30;11.10;;;;;;;0.21;100.00;95591.44;6049216;23;20163;-82
2022/01/10 08:27:33;;;;;;;17.60;11.60;;;;;;;0.28;100.00;95586.81;6050730;23;20192;-82
2022/01/10 08:29:59;;;;;;;21.03;11.27;;;;;;;0.26;100.00;95592.00;6048911;23;20204;-81
2022/01/10 08:32:24;;;;;;;16.00;8.63;;;;;;;0.29;100.00;95596.13;6100476;23;20161;-82
2022/01/10 08:34:50;;;;;;;19.70;10.00;;;;;;;0.28;100.00;95610.63;6072103;23;20171;-81
2022/01/10 08:37:15;;;;;;;19.03;8.47;;;;;;;0.46;100.00;95607.97;6074199;23;20180;-81
2022/01/10 08:39:40;;;;;;;18.17;8.43;;;;;;;0.50;100.00;95609.44;6074591;23;20159;-81
2022/01/10 08:42:06;;;;;;;20.50;10.20;;;;;;;0.52;100.00;95611.00;6074009;23;20210;-82
2022/01/10 08:44:31;;;;;;;14.57;9.10;;;;;;;0.49;100.00;95612.91;6099637;23;20160;-80
2022/01/10 08:46:56;;;;;;;17.97;9.40;;;;;;;0.56;100.00;95614.22;6049777;23;20206;-81
2022/01/10 08:49:24;;;;;;;14.53;8.63;;;;;;;0.62;100.00;95613.03;6074229;23;20160;-81
2022/01/10 08:51:54;;;;;;;16.50;8.40;;;;;;;0.50;100.00;95617.09;6072790;23;20160;-80
2022/01/10 08:54:21;;;;;;;16.50;9.73;;;;;;;0.56;100.00;95624.44;6050596;23;20290;-80
2022/01/10 08:56:46;;;;;;;17.90;10.27;;;;;;;0.72;100.00;95620.13;6073481;23;20184;-79
2022/01/10 08:59:11;;;;;;;23.93;13.97;;;;;;;0.72;100.00;95630.34;6048240;23;20200;-79
2022/01/10 09:01:37;;;;;;;20.73;11.67;;;;;;;0.83;100.00;95632.28;6072025;23;20207;-79
2022/01/10 09:04:03;;;;;;;17.10;11.63;;;;;;;0.83;100.00;95637.41;6072805;23;20176;-80
2022/01/10 09:06:28;;;;;;;33.27;24.57;;;;;;;0.91;100.00;95649.75;6098816;23;20157;-80
2022/01/10 09:08:53;;;;;;;21.40;16.43;;;;;;;0.94;100.00;95647.84;6048755;23;20165;-81
2022/01/10 09:11:19;;;;;;;28.80;20.53;;;;;;;0.97;100.00;95651.94;6048515;23;20157;-80
2022/01/10 09:13:44;;;;;;;30.93;18.87;;;;;;;1.05;100.00;95655.72;6072895;23;20161;-81
2022/01/10 09:16:11;;;;;;;21.20;14.93;;;;;;;1.09;100.00;95662.31;6073513;23;20159;-80
2022/01/10 09:18:37;;;;;;;14.03;9.43;;;;;;;1.13;100.00;95665.53;6072621;23;20186;-80
2022/01/10 09:21:02;;;;;;;14.83;8.00;;;;;;;1.09;100.00;95670.00;6072035;23;20751;-80
2022/01/10 09:23:27;;;;;;;10.43;7.93;;;;;;;1.09;100.00;95669.19;6047438;23;20490;-80
2022/01/10 09:25:53;;;;;;;17.43;7.70;;;;;;;1.08;100.00;95681.16;6072171;23;20211;-80
2022/01/10 09:28:21;;;;;;;18.10;7.43;;;;;;;1.20;100.00;95681.34;6047926;23;20184;-80
2022/01/10 09:30:47;;;;;;;16.93;7.83;;;;;;;1.22;100.00;95690.56;6047944;23;20239;-80
2022/01/10 09:33:13;;;;;;;16.67;7.30;;;;;;;1.21;100.00;95696.59;6047426;23;20164;-80
2022/01/10 09:35:40;;;;;;;13.90;6.70;;;;;;;1.25;100.00;95694.72;6072008;23;20152;-81
2022/01/10 09:38:06;;;;;;;19.97;7.40;;;;;;;1.20;99.29;95697.53;6048217;23;20176;-81
2022/01/10 09:40:31;;;;;;;16.40;6.97;;;;;;;1.21;99.37;95699.16;6047603;23;20181;-80
2022/01/10 09:42:57;;;;;;;14.73;7.20;;;;;;;1.25;99.31;95704.94;6046286;23;20213;-81
2022/01/10 09:45:22;;;;;;;15.97;7.90;;;;;;;1.20;99.07;95707.75;6047334;23;20210;-79
2022/01/10 09:47:47;;;;;;;16.27;6.73;;;;;;;1.39;99.47;95707.53;6071638;23;20225;-80
2022/01/10 09:50:16;;;;;;;17.30;8.80;;;;;;;1.54;98.99;95719.44;6071479;23;20168;-80
2022/01/10 09:52:46;;;;;;;14.97;7.53;;;;;;;1.53;98.54;95722.09;6048594;23;20167;-79
2022/01/10 09:55:12;;;;;;;16.57;6.83;;;;;;;1.54;98.52;95722.00;6048295;23;20674;-80
2022/01/10 09:57:38;;;;;;;12.87;6.77;;;;;;;1.57;97.91;95723.56;6048508;23;20236;-81
2022/01/10 10:00:07;;;;;;;13.87;7.53;;;;;;;1.59;97.75;95731.97;6048262;23;20180;-80
2022/01/10 10:02:35;;;;;;;13.13;7.47;;;;;;;1.67;97.34;95732.34;6069915;23;20219;-78
2022/01/10 10:05:05;;;;;;;16.03;7.20;;;;;;;1.56;96.66;95732.97;6069080;23;20251;-81
2022/01/10 10:07:31;;;;;;;13.03;5.87;;;;;;;1.46;96.08;95731.84;6055605;23;20226;-82
2022/01/10 10:09:59;;;;;;;11.83;6.03;;;;;;;1.60;96.33;95744.69;6047973;23;20180;-81
2022/01/10 10:12:28;;;;;;;16.07;7.00;;;;;;;1.79;96.15;95743.63;6046511;23;20168;-82
2022/01/10 10:14:53;;;;;;;15.00;6.73;;;;;;;1.90;95.93;95749.75;6047669;23;20161;-80
2022/01/10 10:17:21;;;;;;;12.43;6.77;;;;;;;1.51;95.91;95742.66;6047569;23;20747;-80
2022/01/10 10:19:48;;;;;;;11.53;5.73;;;;;;;1.22;96.06;95749.41;6097351;23;20187;-81
2022/01/10 10:22:16;;;;;;;17.37;7.03;;;;;;;1.51;95.78;95763.13;6071128;23;20644;-80
2022/01/10 10:24:42;;;;;;;17.70;7.77;;;;;;;1.36;95.85;95764.81;6048292;23;20167;-81
2022/01/10 10:27:08;;;;;;;15.67;7.30;;;;;;;1.16;96.55;95762.56;6047537;23;20531;-81
2022/01/10 10:29:37;;;;;;;14.90;8.77;;;;;;;1.16;96.37;95765.13;6047329;23;20260;-80
2022/01/10 10:32:04;;;;;;;15.00;10.33;;;;;;;1.33;96.37;95772.69;6046848;23;20171;-82
2022/01/10 10:34:31;;;;;;;17.13;10.07;;;;;;;1.30;96.63;95765.16;6047740;23;20255;-81
2022/01/10 10:37:05;;;;;;;18.00;7.87;;;;;;;1.20;96.90;95769.16;6046641;23;20231;-80
2022/01/10 10:39:36;;;;;;;17.73;8.43;;;;;;;1.12;97.17;95773.88;6095301;23;20220;-81
2022/01/10 10:42:05;;;;;;;16.33;7.33;;;;;;;1.12;96.71;95777.25;6047390;23;20192;-81
2022/01/10 10:44:30;;;;;;;16.80;8.40;;;;;;;1.16;96.95;95785.59;6047566;23;20164;-81
2022/01/10 10:46:56;;;;;;;15.00;8.23;;;;;;;1.28;96.40;95782.34;6071687;23;20185;-81
2022/01/10 10:49:30;;;;;;;23.47;8.53;;;;;;;1.36;95.25;95790.41;6071659;23;20618;-81
2022/01/10 10:51:55;;;;;;;16.57;8.80;;;;;;;1.41;95.88;95791.00;6056767;23;20196;-81
2022/01/10 10:54:22;;;;;;;14.60;8.97;;;;;;;1.48;95.53;95790.63;6097541;23;20141;-80
2022/01/10 10:56:48;;;;;;;19.07;8.40;;;;;;;1.73;95.61;95793.44;6071080;23;20201;-81
2022/01/10 10:59:13;;;;;;;15.13;7.47;;;;;;;1.80;93.36;95801.59;6051914;23;20169;-80
2022/01/10 11:01:40;;;;;;;11.87;6.97;;;;;;;1.89;92.83;95798.50;6051385;23;20188;-80
2022/01/10 11:04:06;;;;;;;17.23;7.97;;;;;;;1.95;93.24;95808.41;6075231;23;20161;-82
2022/01/10 11:06:32;;;;;;;17.30;8.63;;;;;;;1.89;92.85;95806.19;6074057;23;20212;-81
2022/01/10 11:09:04;;;;;;;13.87;7.73;;;;;;;1.87;92.72;95816.53;6075508;23;20658;-83
2022/01/10 11:11:29;;;;;;;14.53;7.67;;;;;;;1.82;92.73;95818.53;6074478;23;20159;-81
2022/01/10 11:13:56;;;;;;;15.97;8.17;;;;;;;1.88;92.94;95818.19;6050257;23;20247;-83
2022/01/10 11:16:24;;;;;;;14.40;7.47;;;;;;;1.93;92.94;95825.56;6049846;23;20164;-81
2022/01/10 11:18:50;;;;;;;15.17;6.87;;;;;;;1.83;93.06;95825.28;6050037;23;20171;-81
2022/01/10 11:21:15;;;;;;;14.63;8.93;;;;;;;1.83;93.45;95827.84;6049379;23;20179;-80
2022/01/10 11:23:43;;;;;;;13.50;7.77;;;;;;;1.80;93.19;95829.78;6073894;23;20184;-81
2022/01/10 11:26:09;;;;;;;23.63;11.93;;;;;;;1.89;93.49;95830.06;6049895;23;20160;-80
2022/01/10 11:28:45;;;;;;;24.53;11.90;;;;;;;2.01;93.79;95825.97;6051097;23;20217;-79